createdAt,value
2022-09-04T00:03:39.237Z,278.25
2022-09-04T00:10:47.380Z,261.38
2022-09-04T00:17:58.574Z,282.27
2022-09-04T00:25:09.282Z,284.70
2022-09-04T00:32:34.871Z,323.67
2022-09-04T00:39:48.244Z,293.25
2022-09-04T00:47:11.943Z,294.23
2022-09-04T00:54:16.505Z,313.23
2022-09-04T01:01:27.036Z,339.17
2022-09-04T01:08:47.289Z,319.10
2022-09-04T01:15:52.028Z,274.85
2022-09-04T01:23:19.714Z,257.58
2022-09-04T01:30:21.378Z,253.93
2022-09-04T01:38:00.127Z,260.13
2022-09-04T01:45:01.839Z,257.48
2022-09-04T01:52:06.022Z,258.20
2022-09-04T01:59:30.104Z,246.90
2022-09-04T02:06:46.882Z,250.63
2022-09-04T02:13:53.693Z,249.20
2022-09-04T02:21:32.697Z,266.23
2022-09-04T02:29:02.359Z,275.45
2022-09-04T02:36:23.813Z,279.27
2022-09-04T02:43:43.521Z,275.38
2022-09-04T02:51:19.118Z,309.63
2022-09-04T02:58:44.084Z,323.63
2022-09-04T03:06:07.899Z,316.63
2022-09-04T03:13:39.361Z,309.05
2022-09-04T03:20:58.827Z,343.02
2022-09-04T03:28:00.859Z,332.27
2022-09-04T03:35:30.459Z,349.15
2022-09-04T03:42:54.184Z,382.55
2022-09-04T03:50:11.081Z,368.83
2022-09-04T03:57:48.092Z,349.15
2022-09-04T04:05:10.350Z,350.27
2022-09-04T04:12:39.206Z,399.15
2022-09-04T04:20:24.205Z,422.60
2022-09-04T04:27:33.518Z,347.65
2022-09-04T04:35:13.034Z,362.80
2022-09-04T04:42:18.300Z,402.75
2022-09-04T04:49:51.478Z,463.95
2022-09-04T04:57:16.303Z,316.05
2022-09-04T05:04:38.485Z,311.70
2022-09-04T05:12:07.591Z,302.50
2022-09-04T05:19:32.706Z,303.88
2022-09-04T05:26:47.719Z,310.63
2022-09-04T05:33:51.833Z,310.88
2022-09-04T05:41:13.521Z,315.25
2022-09-04T05:48:25.047Z,322.48
2022-09-04T05:56:03.277Z,314.17
2022-09-04T06:03:25.044Z,329.45
2022-09-04T06:11:04.108Z,342.02
2022-09-04T06:18:18.439Z,391.20
2022-09-04T06:25:30.818Z,346.98
2022-09-04T06:32:54.464Z,297.23
2022-09-04T06:40:12.129Z,300.27
2022-09-04T06:47:20.056Z,286.42
2022-09-04T06:54:24.706Z,286.83
2022-09-04T07:01:40.194Z,291.35
2022-09-04T07:09:11.163Z,291.08
2022-09-04T07:16:25.194Z,261.65
2022-09-04T07:23:48.909Z,251.85
2022-09-04T07:30:53.743Z,237.77
2022-09-04T07:38:26.287Z,229.43
2022-09-04T07:46:05.382Z,243.68
2022-09-04T07:53:34.268Z,257.50
2022-09-04T08:00:51.402Z,269.10
2022-09-04T08:08:05.000Z,283.15
2022-09-04T08:21:31.419Z,244.25
2022-09-04T08:28:53.284Z,221.57
2022-09-04T08:35:55.246Z,209.65
2022-09-04T08:43:22.635Z,220.38
2022-09-04T08:50:46.946Z,198.52
2022-09-04T08:57:54.743Z,197.52
2022-09-04T09:05:21.314Z,214.70
2022-09-04T09:12:28.369Z,174.30
2022-09-04T09:19:46.642Z,189.38
2022-09-04T09:27:07.298Z,189.90
2022-09-04T09:34:31.064Z,182.35
2022-09-04T09:41:32.590Z,163.68
2022-09-04T09:48:50.565Z,137.68
2022-09-04T09:56:19.646Z,75.50
2022-09-04T10:03:39.599Z,75.10
2022-09-04T10:11:04.566Z,94.78
2022-09-04T10:18:23.070Z,152.18
2022-09-04T10:25:43.146Z,122.97
2022-09-04T10:33:11.274Z,83.82
2022-09-04T10:40:48.023Z,59.78
2022-09-04T10:48:04.630Z,54.80
2022-09-04T10:55:30.287Z,80.13
2022-09-04T11:02:53.162Z,109.07
2022-09-04T11:10:06.973Z,101.40
2022-09-04T11:17:47.077Z,152.05
2022-09-04T11:25:19.073Z,161.90
2022-09-04T11:32:42.534Z,304.20
2022-09-04T11:40:18.182Z,282.17
2022-09-04T11:47:36.665Z,230.68
2022-09-04T11:54:49.184Z,252.20
2022-09-04T12:02:15.236Z,210.00
2022-09-04T12:09:22.935Z,185.73
2022-09-04T12:16:48.897Z,165.45
2022-09-04T12:24:12.580Z,182.50
2022-09-04T12:31:39.413Z,161.70
2022-09-04T12:39:29.884Z,129.15
2022-09-04T12:46:41.101Z,87.03
2022-09-04T12:53:52.992Z,114.82
2022-09-04T13:01:23.118Z,124.43
2022-09-04T13:08:43.880Z,117.82
2022-09-04T13:16:33.766Z,117.85
2022-09-04T13:23:47.842Z,122.55
2022-09-04T13:31:00.028Z,120.50
2022-09-04T13:38:27.342Z,119.40
2022-09-04T13:45:50.044Z,123.18
2022-09-04T13:52:57.959Z,125.57
2022-09-04T14:00:02.725Z,120.10
2022-09-04T14:07:10.581Z,118.73
2022-09-04T14:14:21.538Z,109.43
2022-09-04T14:21:31.393Z,69.35
2022-09-04T14:28:43.761Z,88.18
2022-09-04T14:35:59.814Z,115.25
2022-09-04T14:43:31.930Z,85.82
2022-09-04T14:50:42.913Z,87.30
2022-09-04T14:58:10.976Z,105.28
2022-09-04T15:05:17.349Z,80.38
2022-09-04T15:12:31.238Z,80.72
2022-09-04T15:19:46.448Z,58.90
2022-09-04T15:27:49.838Z,64.53
2022-09-04T15:35:06.507Z,113.53
2022-09-04T15:42:09.334Z,81.03
2022-09-04T15:49:29.526Z,87.22
2022-09-04T15:56:34.905Z,89.60
2022-09-04T16:04:01.122Z,82.40
2022-09-04T16:11:06.754Z,112.30
2022-09-04T16:18:15.840Z,109.88
2022-09-04T16:25:31.139Z,121.35
2022-09-04T16:32:34.108Z,117.90
2022-09-04T16:39:36.239Z,158.65
2022-09-04T16:46:39.843Z,200.27
2022-09-04T16:53:52.446Z,169.43
2022-09-04T17:01:09.167Z,197.20
2022-09-04T17:08:31.180Z,205.98
2022-09-04T17:15:53.507Z,204.57
2022-09-04T17:28:54.429Z,227.10
2022-09-04T17:31:06.515Z,236.07
2022-09-04T17:40:52.231Z,223.88
2022-09-04T17:46:02.151Z,235.82
2022-09-04T17:53:08.211Z,254.65
2022-09-04T18:00:24.851Z,263.85
2022-09-04T18:08:07.956Z,284.10
2022-09-04T18:15:34.024Z,294.67
2022-09-04T18:22:43.803Z,288.55
2022-09-04T18:31:11.290Z,266.08
2022-09-04T18:37:44.437Z,256.98
2022-09-04T18:50:33.352Z,317.40
2022-09-04T18:52:16.976Z,269.98
2022-09-04T18:59:31.039Z,315.90
2022-09-04T19:06:35.370Z,263.85
2022-09-04T19:13:43.941Z,283.55
2022-09-04T19:21:14.637Z,319.77
2022-09-04T19:28:25.735Z,294.67
2022-09-04T19:35:59.859Z,316.63
2022-09-04T19:46:14.128Z,330.77
2022-09-04T19:53:33.327Z,323.00
2022-09-04T19:58:09.020Z,322.55
2022-09-04T20:05:37.088Z,341.17
2022-09-04T20:12:48.929Z,342.52
2022-09-04T20:19:56.602Z,322.88
2022-09-04T20:27:05.928Z,328.75
2022-09-04T20:34:19.327Z,341.73
2022-09-04T20:41:35.959Z,342.48
2022-09-04T20:52:48.976Z,373.48
2022-09-04T20:57:42.174Z,423.33
2022-09-04T21:04:42.135Z,290.60
2022-09-04T21:11:52.219Z,298.93
2022-09-04T21:19:28.357Z,289.35
2022-09-04T21:26:53.992Z,290.23
2022-09-04T21:34:07.584Z,284.70
2022-09-04T21:41:14.403Z,272.08
2022-09-04T21:48:40.603Z,278.95
2022-09-04T22:02:30.400Z,263.83
2022-09-04T22:03:36.904Z,259.17
2022-09-04T22:13:38.286Z,259.00
2022-09-04T22:18:47.562Z,263.20
2022-09-04T22:26:26.771Z,277.00
2022-09-04T22:34:14.321Z,278.58
2022-09-04T22:41:44.628Z,286.70
2022-09-04T22:48:59.591Z,286.15
2022-09-04T22:56:24.594Z,288.38
2022-09-04T23:03:33.308Z,286.25
2022-09-04T23:13:50.738Z,290.13
2022-09-04T23:21:10.537Z,305.35
2022-09-04T23:26:47.559Z,314.67
2022-09-04T23:34:21.855Z,316.83
2022-09-04T23:42:01.800Z,311.83
2022-09-04T23:49:17.635Z,307.02
2022-09-04T23:56:30.046Z,320.00
